Time;durP1;ratioP1;P1;durP2;ratioP2;P2;SDS_P1;SDS_P2;PMS_P1;PMS_P2;Temp;Humidity;BMP_temperature;BMP_pressure;BME280_temperature;BME280_humidity;BME280_pressure;Samples;Min_cycle;Max_cycle;Signal;HPM_P1;HPM_P2
2022/05/16 00:01:54;;;;;;;7.00;6.30;;;;;;;14.22;65.44;95176.38;5092382;28;20071;-71
2022/05/16 00:04:20;;;;;;;7.85;7.07;;;;;;;14.24;65.29;95169.22;5073614;28;20043;-71
2022/05/16 00:06:45;;;;;;;7.68;6.88;;;;;;;14.18;65.53;95164.56;5092363;28;20028;-71
2022/05/16 00:09:10;;;;;;;8.55;7.00;;;;;;;14.10;66.02;95172.28;5073619;28;20396;-71
2022/05/16 00:11:36;;;;;;;7.72;7.00;;;;;;;14.07;66.02;95157.69;5074054;28;20588;-71
2022/05/16 00:14:01;;;;;;;7.65;6.85;;;;;;;14.08;66.30;95163.75;5091579;28;20024;-71
2022/05/16 00:16:27;;;;;;;8.30;6.88;;;;;;;14.07;66.15;95172.56;5093622;28;20032;-71
2022/05/16 00:18:52;;;;;;;8.00;6.68;;;;;;;14.11;66.27;95173.09;5111141;28;20447;-71
2022/05/16 00:21:18;;;;;;;8.98;7.00;;;;;;;14.22;66.11;95170.31;5106921;28;20473;-71
2022/05/16 00:23:44;;;;;;;7.90;7.13;;;;;;;14.16;66.16;95170.91;5074524;28;20024;-72
2022/05/16 00:26:09;;;;;;;7.78;7.07;;;;;;;14.08;66.39;95164.56;5075337;28;20532;-71
2022/05/16 00:28:34;;;;;;;8.13;7.40;;;;;;;14.06;66.37;95170.91;5091306;28;20405;-71
2022/05/16 00:31:00;;;;;;;8.02;7.30;;;;;;;13.99;66.46;95169.81;5091185;28;20433;-71
2022/05/16 00:33:25;;;;;;;7.97;7.13;;;;;;;13.94;66.41;95159.78;5074263;28;20482;-71
2022/05/16 00:35:51;;;;;;;7.50;6.80;;;;;;;14.02;66.13;95166.94;5091855;28;20040;-71
2022/05/16 00:38:16;;;;;;;7.68;6.97;;;;;;;14.03;65.91;95173.78;5091121;28;20156;-71
2022/05/16 00:40:41;;;;;;;7.60;6.80;;;;;;;14.00;65.92;95167.06;5092257;28;20413;-71
2022/05/16 00:43:09;;;;;;;7.65;6.95;;;;;;;13.94;65.94;95157.16;5073907;28;20489;-71
2022/05/16 00:45:35;;;;;;;7.70;6.90;;;;;;;13.91;66.23;95161.84;5108255;28;20231;-71
2022/05/16 00:48:00;;;;;;;8.73;7.03;;;;;;;13.89;66.13;95164.59;5111153;28;20110;-71
2022/05/16 00:50:26;;;;;;;7.63;6.90;;;;;;;13.86;66.02;95168.28;5109264;28;20020;-71
2022/05/16 00:52:52;;;;;;;7.40;6.70;;;;;;;13.73;66.44;95169.53;5111268;28;20103;-71
2022/05/16 00:55:21;;;;;;;9.75;7.30;;;;;;;13.63;66.73;95166.94;5094197;28;20028;-71
2022/05/16 00:57:52;;;;;;;7.75;7.05;;;;;;;13.59;66.92;95168.97;5094357;28;20110;-71
2022/05/16 01:00:22;;;;;;;8.93;7.13;;;;;;;13.64;66.87;95164.19;5089753;28;20112;-71
2022/05/16 01:05:35;;;;;;;8.10;7.38;;;;;;;13.36;67.40;95150.16;5110717;28;20151;-71
2022/05/16 01:08:03;;;;;;;8.57;7.68;;;;;;;13.14;68.31;95159.00;5093868;28;20421;-71
2022/05/16 01:10:28;;;;;;;8.52;7.72;;;;;;;13.03;68.57;95155.69;5111477;28;20181;-71
2022/05/16 01:12:54;;;;;;;9.20;7.95;;;;;;;13.02;68.81;95165.31;5110729;28;20516;-71
2022/05/16 01:15:33;;;;;;;8.80;7.88;;;;;;;12.99;68.95;95167.38;5108891;28;20026;-72
2022/05/16 01:17:58;;;;;;;9.20;8.30;;;;;;;12.96;69.13;95158.03;5110501;28;20032;-71
2022/05/16 01:20:23;;;;;;;8.38;7.57;;;;;;;13.01;69.02;95166.28;5110356;28;20028;-71
2022/05/16 01:22:50;;;;;;;8.80;7.82;;;;;;;12.97;68.88;95157.06;5073572;28;20043;-71
2022/05/16 01:25:23;;;;;;;9.07;8.27;;;;;;;12.88;69.21;95155.25;5073489;28;20024;-71
2022/05/16 01:28:01;;;;;;;9.15;7.90;;;;;;;12.86;69.31;95159.75;5074788;28;20044;-71
2022/05/16 01:30:31;;;;;;;9.13;8.20;;;;;;;12.86;69.46;95162.38;5074458;28;20028;-71
2022/05/16 01:32:56;;;;;;;10.15;9.18;;;;;;;12.63;70.35;95153.94;5090087;28;20040;-71
2022/05/16 01:35:24;;;;;;;15.40;8.52;;;;;;;12.58;70.37;95153.50;5079093;28;20039;-71
2022/05/16 01:40:33;;;;;;;9.20;8.30;;;;;;;12.51;70.81;95166.22;5110548;28;20034;-71
2022/05/16 01:42:59;;;;;;;9.32;8.43;;;;;;;12.55;70.69;95146.75;5110066;28;20031;-71
2022/05/16 01:45:24;;;;;;;9.30;8.40;;;;;;;12.59;70.46;95157.75;5108600;28;20035;-71
2022/05/16 01:47:49;;;;;;;9.85;8.95;;;;;;;12.57;70.22;95146.63;5110353;28;20097;-71
2022/05/16 01:50:15;;;;;;;8.80;7.90;;;;;;;12.53;69.99;95144.28;5107974;28;20031;-71
2022/05/16 01:52:40;;;;;;;9.07;8.13;;;;;;;12.56;70.00;95158.00;5090035;28;20486;-71
2022/05/16 01:55:06;;;;;;;9.35;8.45;;;;;;;12.57;69.99;95159.66;5089835;28;20028;-71
2022/05/16 01:57:32;;;;;;;8.93;8.13;;;;;;;12.58;69.92;95150.88;5089859;28;20039;-71
2022/05/16 01:59:57;;;;;;;9.65;8.60;;;;;;;12.46;70.07;95148.38;5090599;28;20028;-72
2022/05/16 02:02:22;;;;;;;9.13;8.32;;;;;;;12.49;70.12;95162.91;5092291;28;20036;-71
2022/05/16 02:04:48;;;;;;;9.73;8.70;;;;;;;12.53;69.94;95159.09;5090921;28;20086;-71
2022/05/16 02:07:13;;;;;;;9.18;8.38;;;;;;;12.52;69.99;95158.25;5107018;28;20088;-71
2022/05/16 02:09:39;;;;;;;11.05;8.93;;;;;;;12.51;69.59;95154.03;5109985;28;20080;-71
2022/05/16 02:12:05;;;;;;;9.73;8.35;;;;;;;12.47;69.91;95157.81;5107816;28;20429;-71
2022/05/16 02:14:31;;;;;;;9.70;8.52;;;;;;;12.47;69.72;95163.03;5092998;28;20020;-71
2022/05/16 02:16:56;;;;;;;9.55;8.55;;;;;;;12.47;69.53;95160.44;5109992;28;20401;-71
2022/05/16 02:19:21;;;;;;;9.52;8.52;;;;;;;12.45;69.37;95164.97;5074329;28;20417;-71
2022/05/16 02:24:40;;;;;;;9.60;8.45;;;;;;;12.60;69.10;95175.88;5115029;28;20031;-71
2022/05/16 02:27:13;;;;;;;9.57;8.25;;;;;;;12.48;69.26;95172.53;5098439;28;20415;-71
2022/05/16 02:29:38;;;;;;;9.35;8.45;;;;;;;12.55;69.16;95185.03;5078146;28;20019;-71
2022/05/16 02:32:04;;;;;;;9.15;8.27;;;;;;;12.47;69.13;95170.03;5097019;28;20034;-71
2022/05/16 02:34:30;;;;;;;9.98;8.07;;;;;;;12.51;69.00;95174.06;5112017;28;20031;-71
2022/05/16 02:36:55;;;;;;;9.18;8.27;;;;;;;12.55;68.59;95180.63;5094292;28;20040;-71
2022/05/16 02:39:21;;;;;;;9.43;8.13;;;;;;;12.43;68.57;95184.28;5076558;28;20409;-71
2022/05/16 02:41:46;;;;;;;9.80;8.00;;;;;;;12.27;68.75;95179.53;5073846;28;20394;-71
2022/05/16 02:44:12;;;;;;;10.30;7.88;;;;;;;12.26;69.33;95180.50;5096253;28;20027;-71
2022/05/16 02:46:38;;;;;;;10.68;8.10;;;;;;;12.19;69.53;95179.34;5105548;28;20180;-71
2022/05/16 02:49:04;;;;;;;9.15;8.27;;;;;;;12.14;70.18;95178.91;5094428;28;20160;-71
2022/05/16 02:51:29;;;;;;;9.00;8.20;;;;;;;12.10;69.86;95167.09;5075324;28;20063;-71
2022/05/16 02:53:55;;;;;;;9.07;8.25;;;;;;;12.03;70.31;95178.00;5113456;28;20509;-72
2022/05/16 02:56:20;;;;;;;9.30;8.50;;;;;;;11.92;70.71;95167.66;5060027;28;20036;-71
2022/05/16 02:58:45;;;;;;;10.73;8.30;;;;;;;11.92;70.53;95180.66;5076116;28;20501;-71
2022/05/16 03:01:11;;;;;;;9.77;8.00;;;;;;;11.94;70.36;95168.34;5075986;28;20078;-71
2022/05/16 03:03:38;;;;;;;9.32;8.43;;;;;;;11.89;70.50;95180.09;5093794;28;20501;-71
2022/05/16 03:06:04;;;;;;;8.70;7.90;;;;;;;11.90;70.72;95182.59;5103203;28;20028;-71
2022/05/16 03:08:29;;;;;;;9.68;8.77;;;;;;;11.91;70.78;95179.03;5113142;28;20459;-71
2022/05/16 03:10:54;;;;;;;9.40;8.32;;;;;;;11.85;70.87;95174.31;5078940;28;20470;-71
2022/05/16 03:13:20;;;;;;;9.40;8.50;;;;;;;11.90;70.93;95177.38;5096708;28;20047;-71
2022/05/16 03:15:46;;;;;;;9.05;8.25;;;;;;;11.86;70.97;95186.38;5092677;28;20023;-71
2022/05/16 03:18:12;;;;;;;9.52;8.63;;;;;;;11.85;71.23;95182.97;5093863;28;20032;-71
2022/05/16 03:20:37;;;;;;;10.57;9.15;;;;;;;11.87;71.05;95180.25;5093449;28;20051;-71
2022/05/16 03:23:02;;;;;;;9.85;8.95;;;;;;;11.73;71.73;95181.34;5109323;28;20508;-71
2022/05/16 03:25:28;;;;;;;10.98;8.70;;;;;;;11.83;71.92;95184.00;5093679;28;20416;-70
2022/05/16 03:27:53;;;;;;;9.95;8.70;;;;;;;11.86;71.98;95186.38;5092414;28;20081;-70
2022/05/16 03:30:19;;;;;;;10.30;9.05;;;;;;;11.92;71.18;95166.81;5096185;28;20016;-70
2022/05/16 03:32:44;;;;;;;10.45;9.05;;;;;;;11.87;71.55;95171.59;5075658;28;20047;-70
2022/05/16 03:35:09;;;;;;;10.30;9.23;;;;;;;11.89;71.63;95170.50;5093082;28;20024;-69
2022/05/16 03:37:35;;;;;;;9.35;8.40;;;;;;;11.94;71.14;95173.56;5095817;28;20033;-70
2022/05/16 03:42:44;;;;;;;10.10;9.20;;;;;;;11.94;71.23;95170.97;5078242;28;20090;-69
2022/05/16 03:45:10;;;;;;;9.73;8.82;;;;;;;12.07;71.16;95189.00;5095538;28;20477;-69
2022/05/16 03:47:35;;;;;;;9.65;8.75;;;;;;;12.12;71.41;95193.81;5114105;28;20032;-70
2022/05/16 03:50:01;;;;;;;10.82;9.77;;;;;;;12.10;71.57;95190.53;5113636;28;20032;-70
2022/05/16 03:52:26;;;;;;;11.77;9.57;;;;;;;12.11;71.71;95200.81;5110590;28;20036;-70
2022/05/16 03:54:51;;;;;;;10.20;8.95;;;;;;;12.17;71.43;95202.91;5109934;28;20020;-70
2022/05/16 03:57:17;;;;;;;9.02;8.20;;;;;;;12.29;70.90;95214.09;5113828;28;20044;-69
2022/05/16 03:59:42;;;;;;;9.10;8.30;;;;;;;12.36;70.12;95215.22;5109545;28;20027;-70
2022/05/16 04:02:08;;;;;;;8.90;8.00;;;;;;;12.41;69.50;95213.06;5091811;28;20035;-70
2022/05/16 04:04:33;;;;;;;8.52;7.72;;;;;;;12.61;68.57;95214.00;5074999;28;20020;-69
2022/05/16 04:06:59;;;;;;;8.88;7.65;;;;;;;12.76;67.76;95198.84;5075737;28;20040;-70
2022/05/16 04:09:24;;;;;;;9.45;7.35;;;;;;;13.45;65.80;95218.16;5092864;28;20461;-70
2022/05/16 04:11:50;;;;;;;7.88;7.18;;;;;;;14.23;63.44;95221.59;5092714;28;20052;-70
2022/05/16 04:14:15;;;;;;;7.75;7.00;;;;;;;14.95;60.75;95222.84;5087375;28;20036;-70
2022/05/16 04:16:40;;;;;;;7.45;6.75;;;;;;;15.63;58.57;95235.59;5110730;28;20047;-70
2022/05/16 04:19:07;;;;;;;6.88;6.28;;;;;;;16.43;55.92;95233.03;5111875;28;20027;-70
2022/05/16 04:21:34;;;;;;;7.13;6.43;;;;;;;17.16;53.65;95232.66;5101151;28;20044;-70
2022/05/16 04:24:01;;;;;;;6.57;5.97;;;;;;;17.76;51.65;95222.03;5092541;28;20401;-70
2022/05/16 04:26:26;;;;;;;6.75;6.15;;;;;;;18.49;49.54;95233.63;5094052;28;20111;-70
2022/05/16 04:28:52;;;;;;;6.90;6.20;;;;;;;18.96;48.45;95238.19;5092467;28;20487;-70
2022/05/16 04:31:17;;;;;;;6.40;5.80;;;;;;;19.42;46.69;95225.22;5110693;28;20036;-68
2022/05/16 04:33:43;;;;;;;6.60;5.95;;;;;;;19.91;45.68;95237.34;5111539;28;20032;-68
2022/05/16 04:36:08;;;;;;;6.03;5.43;;;;;;;20.15;44.53;95231.09;5109980;28;20030;-69
2022/05/16 04:38:33;;;;;;;6.35;5.75;;;;;;;20.78;43.62;95229.91;5112632;28;20056;-68
2022/05/16 04:43:43;;;;;;;6.65;5.50;;;;;;;21.80;40.69;95227.44;5110567;28;20047;-69
2022/05/16 04:46:08;;;;;;;6.18;5.30;;;;;;;22.28;39.87;95229.56;5093504;28;20032;-69
2022/05/16 05:04:05;;;;;;;5.43;4.57;;;;;;;19.64;46.21;95239.44;5149800;27;20377;-72
2022/05/16 05:06:31;;;;;;;5.00;4.50;;;;;;;19.63;46.34;95237.78;5144935;27;20051;-72
2022/05/16 05:08:56;;;;;;;7.80;6.00;;;;;;;19.43;48.87;95242.66;5140549;27;20023;-72
2022/05/16 05:16:49;;;;;;;9.63;7.07;;;;;;;19.09;50.53;95245.59;5141981;27;20042;-72
2022/05/16 05:19:14;;;;;;;9.45;7.68;;;;;;;18.95;51.16;95245.28;5110582;28;20086;-73
2022/05/16 05:21:40;;;;;;;10.57;7.05;;;;;;;18.81;51.04;95256.50;5129425;27;20473;-72
2022/05/16 05:24:06;;;;;;;9.23;7.18;;;;;;;18.92;51.07;95257.97;5123185;27;20023;-72
2022/05/16 05:26:31;;;;;;;9.20;7.30;;;;;;;18.81;51.29;95253.03;5128614;27;20036;-73
2022/05/16 05:28:57;;;;;;;13.05;7.50;;;;;;;18.98;50.55;95266.00;5128658;27;20032;-72
2022/05/16 05:31:25;;;;;;;9.07;7.10;;;;;;;19.07;50.66;95265.97;5130286;27;20011;-72
2022/05/16 05:33:51;;;;;;;13.27;7.32;;;;;;;19.08;50.39;95264.97;5129633;27;20055;-73
2022/05/16 05:36:16;;;;;;;11.77;7.05;;;;;;;19.11;50.40;95272.53;5128422;27;20016;-73
2022/05/16 05:38:42;;;;;;;10.27;8.20;;;;;;;19.18;50.14;95276.16;5140746;27;20027;-72
2022/05/16 05:41:08;;;;;;;10.25;7.32;;;;;;;19.10;49.78;95269.09;5147649;27;20031;-72
2022/05/16 05:43:33;;;;;;;8.88;7.40;;;;;;;18.78;51.05;95269.13;5133562;27;20035;-73
2022/05/16 05:46:01;;;;;;;8.38;7.47;;;;;;;18.75;51.83;95276.41;5127003;28;20027;-72
2022/05/16 05:48:28;;;;;;;10.57;7.88;;;;;;;18.59;51.66;95268.50;5127105;28;20096;-72
2022/05/16 05:50:53;;;;;;;8.68;7.28;;;;;;;18.48;52.21;95271.44;5128914;27;20055;-72
2022/05/16 05:53:19;;;;;;;8.27;7.30;;;;;;;18.56;52.60;95270.63;5126999;27;20074;-72
2022/05/16 05:55:47;;;;;;;10.30;7.03;;;;;;;18.67;51.98;95268.47;5133442;27;20023;-73
2022/05/16 05:58:13;;;;;;;8.18;6.78;;;;;;;18.60;52.36;95266.69;5144921;27;20027;-72
2022/05/16 06:00:39;;;;;;;8.20;7.10;;;;;;;18.58;52.20;95258.94;5139763;27;20027;-72
2022/05/16 06:03:04;;;;;;;14.02;7.68;;;;;;;18.66;52.83;95269.44;5132046;27;20052;-71
2022/05/16 06:05:30;;;;;;;11.30;7.45;;;;;;;18.75;53.20;95270.31;5119369;27;20035;-73
2022/05/16 06:07:55;;;;;;;8.23;7.38;;;;;;;18.88;52.21;95273.25;5114725;27;20027;-74
2022/05/16 06:10:21;;;;;;;8.55;7.03;;;;;;;18.77;52.14;95272.78;5130888;27;20027;-73
2022/05/16 06:12:46;;;;;;;8.90;7.05;;;;;;;18.80;52.77;95268.00;5124896;27;20521;-73
2022/05/16 06:15:12;;;;;;;9.38;7.68;;;;;;;18.83;52.60;95269.47;5133828;27;20034;-73
2022/05/16 06:17:37;;;;;;;8.05;7.20;;;;;;;18.94;52.15;95263.84;5133360;27;20031;-73
2022/05/16 06:20:05;;;;;;;8.23;7.45;;;;;;;19.05;52.59;95260.88;5114946;27;20031;-72
2022/05/16 06:22:34;;;;;;;7.88;6.53;;;;;;;19.17;52.29;95259.53;5118447;27;20031;-73
2022/05/16 06:25:32;;;;;;;7.45;6.10;;;;;;;19.32;51.09;95262.28;5127668;27;20027;-73
2022/05/16 06:28:08;;;;;;;7.53;6.07;;;;;;;19.58;50.07;95267.28;5121612;27;20038;-74
2022/05/16 06:30:34;;;;;;;8.73;6.20;;;;;;;19.57;50.28;95234.03;5121311;27;20030;-74
2022/05/16 06:32:59;;;;;;;6.57;5.93;;;;;;;19.78;49.93;95259.81;5126259;27;20119;-73
2022/05/16 06:35:25;;;;;;;10.68;6.45;;;;;;;19.76;49.87;95266.25;5097921;28;20493;-74
2022/05/16 06:37:50;;;;;;;7.35;6.65;;;;;;;19.81;50.48;95258.66;5121043;27;20027;-74
2022/05/16 06:40:17;;;;;;;9.15;7.57;;;;;;;19.82;50.21;95255.84;5124033;27;20103;-74
2022/05/16 06:42:43;;;;;;;8.15;7.18;;;;;;;19.90;50.29;95254.16;5101171;27;20369;-73
2022/05/16 06:45:09;;;;;;;10.32;7.20;;;;;;;20.08;50.58;95263.41;5120788;27;20035;-76
2022/05/16 06:47:34;;;;;;;10.25;7.43;;;;;;;20.20;50.13;95257.75;5125822;27;20039;-73
2022/05/16 06:49:59;;;;;;;11.50;7.65;;;;;;;20.31;49.77;95260.81;5120056;27;20023;-74
2022/05/16 06:52:25;;;;;;;13.38;7.85;;;;;;;20.42;50.76;95264.84;5105366;28;20036;-74
2022/05/16 06:54:51;;;;;;;9.50;8.60;;;;;;;20.53;49.88;95261.81;5117167;27;20028;-74
2022/05/16 06:57:17;;;;;;;13.07;8.25;;;;;;;20.42;48.52;95251.66;5122316;27;20029;-74
2022/05/16 06:59:42;;;;;;;12.70;8.13;;;;;;;20.11;48.44;95250.88;5122239;27;20024;-72
2022/05/16 07:02:08;;;;;;;12.43;7.65;;;;;;;20.11;49.54;95251.69;5099949;27;20504;-74
2022/05/16 07:04:36;;;;;;;9.75;6.60;;;;;;;20.21;46.61;95262.03;5112620;27;20032;-73
2022/05/16 07:07:04;;;;;;;9.20;6.32;;;;;;;20.28;47.22;95262.94;5119245;27;20085;-74
2022/05/16 07:09:30;;;;;;;8.52;6.78;;;;;;;20.46;45.82;95257.38;5111434;27;20416;-76
2022/05/16 07:11:55;;;;;;;10.73;6.95;;;;;;;20.54;47.63;95252.06;5131446;27;20023;-74
2022/05/16 07:14:21;;;;;;;14.45;6.63;;;;;;;20.60;46.41;95248.72;5104524;27;20027;-76
2022/05/16 07:16:46;;;;;;;9.23;5.70;;;;;;;20.73;45.59;95253.41;5128643;27;20023;-72
2022/05/16 07:19:12;;;;;;;7.75;6.32;;;;;;;20.78;45.70;95248.38;5133308;27;20038;-71
2022/05/16 07:21:38;;;;;;;6.72;6.00;;;;;;;21.03;45.79;95259.53;5082445;28;20047;-71
2022/05/16 07:24:04;;;;;;;9.05;5.65;;;;;;;21.17;45.25;95253.47;5114334;27;20023;-71
2022/05/16 07:29:13;;;;;;;8.30;5.63;;;;;;;21.41;44.49;95259.47;5133196;27;20416;-71
2022/05/16 07:31:38;;;;;;;8.25;5.53;;;;;;;21.23;44.33;95259.84;5133023;27;20028;-71
2022/05/16 07:34:04;;;;;;;8.73;5.60;;;;;;;21.22;43.85;95252.91;5131926;27;20024;-71
2022/05/16 07:36:29;;;;;;;8.30;5.70;;;;;;;21.27;43.61;95253.16;5131803;27;20080;-71
2022/05/16 07:38:55;;;;;;;6.40;5.40;;;;;;;21.37;42.58;95251.13;5097444;27;20461;-72
2022/05/16 07:41:20;;;;;;;8.55;4.60;;;;;;;21.44;42.26;95247.72;5131063;27;20051;-71
2022/05/16 07:43:45;;;;;;;11.85;5.15;;;;;;;21.67;41.44;95248.41;5112546;27;20079;-71
2022/05/16 07:46:11;;;;;;;8.40;5.45;;;;;;;21.81;41.90;95244.09;5130653;27;20027;-71
2022/05/16 07:48:36;;;;;;;7.72;5.75;;;;;;;21.91;41.31;95233.25;5129304;27;20015;-71
2022/05/16 07:51:02;;;;;;;10.48;5.70;;;;;;;21.96;41.70;95242.25;5112192;27;20020;-72
2022/05/16 07:53:27;;;;;;;9.18;5.55;;;;;;;21.97;42.33;95229.84;5130883;27;20043;-71
2022/05/16 07:55:54;;;;;;;6.60;5.57;;;;;;;22.10;41.67;95235.28;5132021;27;20511;-71
2022/05/16 07:58:20;;;;;;;9.98;5.95;;;;;;;22.23;40.56;95238.09;5114659;27;20031;-72
2022/05/16 08:00:46;;;;;;;8.10;6.07;;;;;;;22.37;41.26;95231.09;5097197;27;20519;-72
2022/05/16 08:03:12;;;;;;;8.38;6.05;;;;;;;22.36;41.17;95233.94;5131174;27;20527;-72
2022/05/16 08:05:37;;;;;;;9.80;6.30;;;;;;;22.33;41.12;95223.72;5114156;27;20051;-71
2022/05/16 08:10:46;;;;;;;10.52;6.00;;;;;;;22.53;40.54;95238.75;5132754;27;20034;-72
2022/05/16 08:13:12;;;;;;;8.15;5.80;;;;;;;22.63;40.23;95237.63;5132688;27;20031;-72
2022/05/16 08:15:38;;;;;;;9.23;6.03;;;;;;;22.70;40.41;95238.47;5132608;27;20424;-71
2022/05/16 08:18:05;;;;;;;8.95;5.50;;;;;;;22.72;39.66;95233.81;5131223;27;20046;-71
2022/05/16 08:20:31;;;;;;;8.18;5.95;;;;;;;22.68;39.62;95236.03;5130983;27;20042;-72
2022/05/16 08:22:57;;;;;;;9.75;5.35;;;;;;;22.61;37.66;95219.28;5131110;27;20031;-72
2022/05/16 08:25:23;;;;;;;6.97;4.63;;;;;;;22.73;36.37;95228.34;5113930;27;20057;-72
2022/05/16 08:27:51;;;;;;;7.70;5.32;;;;;;;22.79;38.02;95236.50;5130745;27;20031;-72
2022/05/16 08:30:18;;;;;;;6.43;5.20;;;;;;;22.78;40.07;95227.75;5114173;27;20023;-72
2022/05/16 08:32:44;;;;;;;11.43;6.07;;;;;;;22.85;39.99;95235.75;5113773;27;20035;-71
2022/05/16 08:35:10;;;;;;;7.80;6.05;;;;;;;22.92;39.42;95236.63;5132296;27;20389;-72
2022/05/16 08:40:20;;;;;;;11.00;5.72;;;;;;;22.92;37.74;95226.03;5131040;27;20061;-72
2022/05/16 08:42:49;;;;;;;7.35;5.10;;;;;;;23.02;37.09;95225.72;5096757;28;20104;-72
2022/05/16 08:45:34;;;;;;;8.10;5.20;;;;;;;23.07;34.96;95221.47;5130646;27;20500;-72
2022/05/16 08:48:04;;;;;;;8.38;4.63;;;;;;;23.16;34.74;95220.31;5130986;27;20031;-72
2022/05/16 08:50:37;;;;;;;9.40;4.43;;;;;;;23.26;35.85;95222.59;5130625;28;20034;-71
2022/05/16 08:53:23;;;;;;;9.07;5.00;;;;;;;23.39;33.71;95217.34;5114016;28;20043;-73
2022/05/16 08:55:54;;;;;;;8.35;4.60;;;;;;;23.42;34.72;95201.06;5130326;28;20251;-72
2022/05/16 08:58:33;;;;;;;9.50;4.53;;;;;;;23.59;32.79;95204.19;5096661;28;20032;-72
2022/05/16 09:01:01;;;;;;;7.93;4.07;;;;;;;23.72;33.76;95200.00;5130647;28;20035;-72
2022/05/16 09:03:48;;;;;;;5.75;4.80;;;;;;;23.96;33.60;95207.41;5131750;27;20047;-72
2022/05/16 09:06:26;;;;;;;10.75;4.60;;;;;;;24.02;34.17;95203.13;5113118;28;20058;-72
2022/05/16 09:09:11;;;;;;;8.02;3.58;;;;;;;24.15;30.43;95200.47;5130598;28;20092;-71
2022/05/16 09:11:52;;;;;;;7.43;3.50;;;;;;;24.16;30.98;95201.31;5130267;28;20031;-72
2022/05/16 09:14:28;;;;;;;5.45;3.13;;;;;;;24.28;30.57;95197.03;5131598;27;20553;-72
2022/05/16 09:17:04;;;;;;;4.80;2.47;;;;;;;24.28;28.95;95183.78;5130392;28;20035;-72
2022/05/16 09:19:54;;;;;;;5.55;2.80;;;;;;;24.42;31.04;95196.03;5130585;28;20033;-72
2022/05/16 09:22:33;;;;;;;3.63;2.22;;;;;;;24.53;27.56;95192.78;5131760;27;20039;-72
2022/05/16 09:25:03;;;;;;;4.18;2.30;;;;;;;24.52;27.11;95177.09;5130334;28;20028;-72
2022/05/16 09:30:16;;;;;;;3.72;1.85;;;;;;;24.74;25.74;95194.44;5130494;28;20042;-72
2022/05/16 09:32:44;;;;;;;5.47;1.83;;;;;;;24.86;25.51;95186.66;5112962;28;20507;-72
2022/05/16 09:35:45;;;;;;;4.07;1.75;;;;;;;24.95;23.90;95179.28;5130280;28;20023;-73
2022/05/16 09:38:11;;;;;;;4.28;1.90;;;;;;;25.04;23.43;95177.22;5117853;27;20142;-72
2022/05/16 09:40:53;;;;;;;2.75;1.70;;;;;;;25.05;24.42;95179.66;5116976;27;20022;-72
2022/05/16 09:43:20;;;;;;;5.90;1.75;;;;;;;24.86;23.06;95157.44;5134291;27;20031;-73
2022/05/16 09:45:59;;;;;;;6.72;1.95;;;;;;;25.06;23.68;95175.16;5116912;27;20424;-72
2022/05/16 09:48:24;;;;;;;6.05;1.70;;;;;;;25.16;24.49;95175.59;5117424;27;20463;-72
2022/05/16 09:51:04;;;;;;;3.80;1.60;;;;;;;25.25;23.25;95168.19;5133936;27;20030;-72
2022/05/16 09:53:43;;;;;;;2.85;1.50;;;;;;;25.29;23.13;95156.09;5116746;27;20534;-72
2022/05/16 09:56:21;;;;;;;3.75;2.08;;;;;;;25.43;24.19;95160.34;5117198;27;20083;-71
2022/05/16 09:59:05;;;;;;;3.65;1.98;;;;;;;25.50;22.86;95150.50;5134885;27;20511;-72
2022/05/16 10:01:40;;;;;;;4.13;1.85;;;;;;;25.53;24.16;95139.44;5134970;27;20553;-72
2022/05/16 10:04:09;;;;;;;3.20;1.58;;;;;;;25.58;23.25;95144.13;5116932;27;20035;-72
2022/05/16 10:06:37;;;;;;;4.97;1.83;;;;;;;25.59;23.75;95143.09;5135007;27;20027;-72
2022/05/16 10:09:27;;;;;;;4.70;1.80;;;;;;;25.60;23.08;95139.41;5116679;27;20033;-72
2022/05/16 10:11:53;;;;;;;3.40;1.60;;;;;;;25.62;23.34;95135.50;5133446;27;20054;-72
2022/05/16 10:14:18;;;;;;;3.10;1.40;;;;;;;25.55;22.05;95133.94;5134696;27;20062;-73
2022/05/16 10:16:47;;;;;;;4.43;1.77;;;;;;;25.58;22.63;95130.84;5116239;27;20042;-72
2022/05/16 10:19:15;;;;;;;6.18;1.60;;;;;;;25.54;21.48;95132.28;5116564;27;20055;-72
2022/05/16 10:22:01;;;;;;;4.65;1.65;;;;;;;25.59;23.09;95132.47;5133258;27;20032;-72
2022/05/16 10:24:29;;;;;;;6.28;1.73;;;;;;;25.61;22.73;95125.09;5117154;27;20420;-72
2022/05/16 10:26:56;;;;;;;2.83;1.33;;;;;;;25.55;22.74;95129.41;5099351;27;20038;-72
2022/05/16 10:29:32;;;;;;;3.20;1.50;;;;;;;25.59;22.78;95111.19;5116230;27;20092;-72
2022/05/16 10:34:55;;;;;;;2.97;1.50;;;;;;;25.62;24.25;95110.75;5118890;27;20541;-73
2022/05/16 10:37:21;;;;;;;3.03;1.55;;;;;;;25.62;23.44;95106.25;5116130;27;20035;-72
2022/05/16 10:39:50;;;;;;;6.22;2.00;;;;;;;25.77;23.65;95105.97;5133009;27;20155;-72
2022/05/16 10:42:16;;;;;;;6.65;1.70;;;;;;;25.82;23.33;95100.78;5098900;27;20026;-72
2022/05/16 10:44:48;;;;;;;4.05;1.80;;;;;;;25.84;23.65;95093.47;5132862;27;20109;-72
2022/05/16 10:47:17;;;;;;;6.10;1.90;;;;;;;25.85;24.17;95092.44;5134192;27;20023;-72
2022/05/16 10:49:48;;;;;;;6.70;1.50;;;;;;;25.88;22.85;95093.84;5115770;27;20507;-72
2022/05/16 10:52:14;;;;;;;4.10;1.55;;;;;;;25.75;21.27;95091.25;5116062;27;20045;-73
2022/05/16 10:54:39;;;;;;;8.48;1.90;;;;;;;25.65;23.43;95078.41;5134156;27;20027;-72
2022/05/16 10:57:23;;;;;;;3.72;1.70;;;;;;;25.75;24.29;95091.25;5132612;27;20468;-72
2022/05/16 11:00:07;;;;;;;2.45;1.48;;;;;;;25.83;24.03;95089.19;5133837;27;20597;-72
2022/05/16 11:02:38;;;;;;;3.17;1.70;;;;;;;25.71;23.00;95098.00;5133692;27;20126;-72
2022/05/16 11:05:13;;;;;;;3.22;1.60;;;;;;;25.70;23.54;95085.75;5132421;27;20057;-72
2022/05/16 11:07:57;;;;;;;3.42;1.50;;;;;;;25.70;24.07;95075.91;5133799;27;20476;-72
2022/05/16 11:10:32;;;;;;;4.40;1.75;;;;;;;25.77;24.96;95071.38;5132353;27;20019;-72
2022/05/16 11:13:29;;;;;;;3.08;1.75;;;;;;;25.83;24.52;95070.56;5098091;27;20074;-72
2022/05/16 11:16:36;;;;;;;5.05;1.67;;;;;;;25.83;24.75;95078.53;5115500;27;20432;-72
2022/05/16 11:19:16;;;;;;;3.15;1.70;;;;;;;25.85;25.21;95065.84;5133124;27;20099;-72
2022/05/16 11:21:48;;;;;;;4.95;1.75;;;;;;;25.88;24.57;95066.41;5133359;27;20031;-72
2022/05/16 11:24:30;;;;;;;2.63;1.67;;;;;;;25.91;24.83;95066.81;5132252;27;20605;-72
2022/05/16 11:27:10;;;;;;;3.30;1.55;;;;;;;26.03;23.75;95066.94;5131941;27;20034;-72
2022/05/16 11:30:08;;;;;;;4.47;1.75;;;;;;;26.10;24.66;95065.00;5132031;27;20031;-72
2022/05/16 11:32:59;;;;;;;2.80;1.55;;;;;;;26.11;24.22;95066.66;5131803;27;20504;-72
2022/05/16 11:35:35;;;;;;;;;;;;;;;26.06;24.25;95064.63;5133657;27;20407;-72
2022/05/16 11:38:18;;;;;;;3.47;1.50;;;;;;;26.12;24.03;95060.28;5131935;27;20395;-72
2022/05/16 11:40:51;;;;;;;4.05;1.45;;;;;;;26.20;23.57;95048.56;5131688;27;20070;-72
2022/05/16 11:43:17;;;;;;;3.80;1.38;;;;;;;26.18;22.87;95051.44;5114738;27;20077;-72
2022/05/16 11:45:42;;;;;;;3.67;1.27;;;;;;;26.19;23.24;95050.41;5132855;27;20064;-72
2022/05/16 11:48:16;;;;;;;2.78;1.35;;;;;;;26.18;22.09;95046.09;5131611;27;20130;-72
2022/05/16 11:50:49;;;;;;;4.22;1.10;;;;;;;26.08;21.52;95049.28;5131588;27;20545;-73
2022/05/16 11:53:40;;;;;;;1.95;1.10;;;;;;;26.11;23.46;95045.38;5131538;27;20041;-72
2022/05/16 12:01:34;;;;;;;4.60;1.42;;;;;;;26.35;23.88;95046.34;5132030;27;20047;-72
2022/05/16 12:04:12;;;;;;;4.25;1.50;;;;;;;26.48;22.95;95043.56;5131428;27;20133;-73
2022/05/16 12:06:39;;;;;;;2.20;1.23;;;;;;;26.55;22.12;95034.72;5132491;27;20027;-72
2022/05/16 12:09:17;;;;;;;3.22;1.27;;;;;;;26.51;22.57;95013.88;5114538;27;20381;-73
2022/05/16 12:11:55;;;;;;;2.90;1.35;;;;;;;26.69;22.33;95018.41;5132324;27;20031;-72
2022/05/16 12:14:34;;;;;;;4.50;1.20;;;;;;;26.70;22.51;95014.69;5131155;27;20031;-72
2022/05/16 12:17:00;;;;;;;3.23;1.20;;;;;;;26.62;23.01;95014.97;5097105;27;20046;-72
2022/05/16 12:19:30;;;;;;;2.80;1.10;;;;;;;26.60;23.00;95008.25;5132313;27;20022;-72
2022/05/16 12:22:07;;;;;;;3.50;1.50;;;;;;;26.66;22.36;94994.88;5114456;27;20027;-72
2022/05/16 12:24:32;;;;;;;3.70;1.40;;;;;;;26.76;21.77;95007.66;5109408;27;20062;-72
2022/05/16 12:27:04;;;;;;;2.33;1.10;;;;;;;26.79;21.05;95006.41;5123808;27;20062;-72
2022/05/16 12:29:43;;;;;;;5.28;1.73;;;;;;;26.82;21.63;95004.09;5103139;27;20031;-78
2022/05/16 12:32:20;;;;;;;4.10;1.02;;;;;;;26.82;20.93;94987.28;5101223;27;20046;-78
2022/05/16 12:34:46;;;;;;;4.13;1.20;;;;;;;26.83;21.05;94994.25;5104471;28;20034;-78